CPX108 Details

Departure: Seattle-Tacoma International Airport (KSEA)
Arrival: Daniel K Inouye International Airport (PHNL)
Route: HAROB6 HQM SEDAR FOZZI HEKAB A332 HALLI BOARD R464 BITTA MAGGI3


Current Weather Information
KSEA 232353Z VRB04KT 10SM FEW040 SCT250 24/13 A2990 RMK AO2 SLP129 T02440128 10250 20144 56021
PHNL 232353Z 16009KT 10SM FEW025 FEW039 SCT050 31/21 A3002 RMK AO2 SLP164 VCSH NE T03060206 10322 20267 58006